Time;durP1;ratioP1;P1;durP2;ratioP2;P2;SDS_P1;SDS_P2;PMS_P1;PMS_P2;Temp;Humidity;BMP_temperature;BMP_pressure;BME280_temperature;BME280_humidity;BME280_pressure;Samples;Min_cycle;Max_cycle;Signal;HPM_P1;HPM_P2
2023/01/27 00:00:21;;;;;;;9.05;2.25;;;;;;;18.66;43.29;102349.78;5014307;28;20068;-70
2023/01/27 00:02:46;;;;;;;8.88;1.75;;;;;;;18.64;43.46;102349.00;5014268;28;20034;-69
2023/01/27 00:05:14;;;;;;;9.52;1.63;;;;;;;18.67;43.43;102359.41;5014611;28;20037;-71
2023/01/27 00:07:44;;;;;;;8.90;1.65;;;;;;;18.62;43.36;102346.47;5004921;28;20030;-70
2023/01/27 00:10:12;;;;;;;11.65;2.17;;;;;;;18.60;43.47;102347.50;5013218;28;20528;-70
2023/01/27 00:15:21;;;;;;;11.23;1.90;;;;;;;18.56;43.26;102343.34;5014342;28;20037;-69
2023/01/27 00:17:47;;;;;;;10.50;1.90;;;;;;;18.59;43.17;102351.09;5014074;28;20330;-70
2023/01/27 00:20:12;;;;;;;8.33;1.70;;;;;;;18.53;43.58;102344.38;5013888;28;20040;-69
2023/01/27 00:25:21;;;;;;;9.75;1.80;;;;;;;18.55;42.92;102342.50;5014195;28;20838;-69
2023/01/27 00:27:46;;;;;;;7.10;2.20;;;;;;;18.53;42.11;102340.88;5013781;28;20116;-69
2023/01/27 00:30:12;;;;;;;6.80;1.73;;;;;;;18.53;41.66;102346.16;5013919;28;20116;-69
2023/01/27 00:35:22;;;;;;;6.72;1.70;;;;;;;18.43;40.95;102338.78;5013615;28;20049;-70
2023/01/27 00:37:47;;;;;;;8.50;1.90;;;;;;;18.47;40.88;102340.31;5013847;28;20045;-70
2023/01/27 00:40:14;;;;;;;9.85;2.00;;;;;;;18.48;40.71;102351.72;5011804;28;20041;-68
2023/01/27 00:42:40;;;;;;;7.18;1.48;;;;;;;18.45;40.94;102344.84;5013679;28;20025;-68
2023/01/27 00:47:51;;;;;;;6.00;1.48;;;;;;;18.46;40.84;102357.09;5013184;28;20040;-69
2023/01/27 00:50:17;;;;;;;6.85;1.40;;;;;;;18.44;40.71;102348.41;5008871;28;20459;-70
2023/01/27 00:52:44;;;;;;;6.63;1.48;;;;;;;18.45;40.89;102350.13;5013550;28;20048;-69
2023/01/27 00:55:09;;;;;;;6.60;1.40;;;;;;;18.44;40.84;102355.50;5011465;28;20052;-69
2023/01/27 00:57:38;;;;;;;3.83;1.08;;;;;;;18.41;40.87;102348.59;5012621;28;20426;-70
2023/01/27 01:00:05;;;;;;;6.78;1.48;;;;;;;18.41;40.56;102353.88;5013213;28;20032;-70
2023/01/27 01:02:31;;;;;;;7.47;1.40;;;;;;;18.44;40.39;102355.50;5013888;28;20522;-69
2023/01/27 01:04:56;;;;;;;7.07;1.67;;;;;;;18.40;40.40;102356.59;5013238;28;20043;-69
2023/01/27 01:07:22;;;;;;;8.15;2.00;;;;;;;18.42;40.34;102360.88;5013192;28;20030;-69
2023/01/27 01:09:47;;;;;;;6.05;1.40;;;;;;;18.39;40.22;102358.41;5013029;28;20029;-70
2023/01/27 01:12:12;;;;;;;7.75;1.73;;;;;;;18.41;40.17;102360.94;5013274;28;20038;-69
2023/01/27 01:14:37;;;;;;;6.70;1.65;;;;;;;18.39;39.87;102354.88;5012966;28;20072;-70
2023/01/27 01:17:03;;;;;;;3.50;1.20;;;;;;;18.39;39.81;102366.31;5013276;28;20133;-70
2023/01/27 01:19:29;;;;;;;4.43;1.27;;;;;;;18.33;40.04;102358.75;5013104;28;20272;-69
2023/01/27 01:21:55;;;;;;;7.45;1.45;;;;;;;18.37;39.80;102364.69;5013246;28;20108;-70
2023/01/27 01:24:20;;;;;;;6.38;1.52;;;;;;;18.32;39.63;102364.97;5013439;28;20096;-70
2023/01/27 01:26:45;;;;;;;7.22;1.80;;;;;;;18.36;39.67;102369.13;5012211;28;20037;-70
2023/01/27 01:29:10;;;;;;;4.95;1.60;;;;;;;18.31;39.41;102368.56;5013101;28;20200;-70
2023/01/27 01:31:36;;;;;;;5.32;1.38;;;;;;;18.30;39.60;102372.97;5012882;28;20038;-70
2023/01/27 01:34:01;;;;;;;4.88;1.20;;;;;;;18.27;39.29;102365.22;5013075;28;20466;-69
2023/01/27 01:36:26;;;;;;;5.63;1.60;;;;;;;18.31;39.50;102371.19;5012693;28;20049;-70
2023/01/27 01:38:55;;;;;;;4.37;1.10;;;;;;;18.26;39.19;102374.09;5012867;28;20459;-70
2023/01/27 01:41:22;;;;;;;7.47;1.67;;;;;;;18.29;39.02;102380.97;5012681;28;20299;-70
2023/01/27 01:43:48;;;;;;;4.35;0.98;;;;;;;18.26;39.00;102378.50;5012460;28;20038;-69
2023/01/27 01:46:14;;;;;;;4.60;1.17;;;;;;;18.24;39.50;102375.13;5004564;28;20025;-69
2023/01/27 01:48:46;;;;;;;5.18;1.77;;;;;;;18.26;39.18;102378.50;5012455;28;20034;-70
2023/01/27 01:51:17;;;;;;;6.45;1.65;;;;;;;18.23;39.36;102378.69;5011969;28;20053;-70
2023/01/27 01:53:54;;;;;;;4.97;1.25;;;;;;;18.20;39.14;102374.44;5012749;28;20030;-70
2023/01/27 01:56:29;;;;;;;5.85;1.40;;;;;;;18.24;39.19;102386.50;4986942;28;20487;-70
2023/01/27 01:58:57;;;;;;;7.72;1.45;;;;;;;18.20;39.14;102376.22;5012804;28;20244;-71
2023/01/27 02:01:22;;;;;;;4.40;1.20;;;;;;;18.19;39.36;102379.81;5018435;28;20544;-69
2023/01/27 02:03:54;;;;;;;4.70;1.52;;;;;;;18.21;39.05;102381.41;5012182;28;20037;-71
2023/01/27 02:06:20;;;;;;;5.78;1.60;;;;;;;18.18;39.03;102375.47;5002586;28;20559;-69
2023/01/27 02:08:48;;;;;;;6.18;1.23;;;;;;;18.19;39.01;102374.53;5011824;28;20033;-70
2023/01/27 02:11:13;;;;;;;3.95;1.27;;;;;;;18.16;38.95;102378.19;5012060;28;20474;-70
2023/01/27 02:13:39;;;;;;;5.35;1.40;;;;;;;18.18;39.14;102375.47;5011224;28;20072;-70
2023/01/27 02:16:05;;;;;;;3.97;1.25;;;;;;;18.14;38.96;102372.16;5012022;28;20044;-70
2023/01/27 02:18:30;;;;;;;6.05;1.25;;;;;;;18.15;38.77;102370.34;5011945;28;20030;-69
2023/01/27 02:20:56;;;;;;;4.72;1.35;;;;;;;18.16;38.66;102374.72;5011649;28;20041;-69
2023/01/27 02:23:47;;;;;;;5.10;1.25;;;;;;;18.16;38.79;102380.00;5010518;28;20124;-70
2023/01/27 02:26:22;;;;;;;4.20;1.33;;;;;;;18.06;38.66;102372.59;5012087;28;20043;-70
2023/01/27 02:28:54;;;;;;;4.53;1.23;;;;;;;18.13;38.74;102387.16;5011618;28;20367;-69
2023/01/27 02:31:20;;;;;;;4.68;1.50;;;;;;;18.13;38.74;102384.50;5011554;28;20183;-70
2023/01/27 02:33:45;;;;;;;4.68;1.33;;;;;;;18.11;38.36;102386.38;5011959;28;20144;-69
2023/01/27 02:36:16;;;;;;;4.35;1.20;;;;;;;18.08;38.41;102389.19;5011549;28;20568;-70
2023/01/27 02:38:46;;;;;;;5.03;1.40;;;;;;;18.08;38.59;102393.63;5011608;28;20040;-69
2023/01/27 02:41:21;;;;;;;5.70;1.40;;;;;;;18.10;38.61;102400.50;5011843;28;20045;-69
2023/01/27 02:43:48;;;;;;;6.45;1.42;;;;;;;18.07;38.44;102403.31;5011541;28;20060;-68
2023/01/27 02:46:14;;;;;;;3.83;1.20;;;;;;;18.09;38.22;102398.81;5011249;28;20041;-69
2023/01/27 02:48:39;;;;;;;4.63;1.13;;;;;;;18.06;38.38;102395.50;5011145;28;20153;-69
2023/01/27 02:51:04;;;;;;;4.13;1.20;;;;;;;18.09;38.34;102400.59;5010900;28;20060;-69
2023/01/27 02:53:30;;;;;;;4.10;1.20;;;;;;;18.03;38.18;102391.22;5011575;28;20033;-69
2023/01/27 02:55:55;;;;;;;5.20;1.40;;;;;;;18.07;38.28;102397.19;5011709;28;20046;-69
2023/01/27 02:58:20;;;;;;;3.90;1.17;;;;;;;18.04;38.14;102397.34;5010421;28;20072;-68
2023/01/27 03:00:46;;;;;;;4.72;1.10;;;;;;;18.04;37.97;102392.94;5011133;28;20274;-69
2023/01/27 03:03:11;;;;;;;6.05;1.45;;;;;;;18.02;38.12;102391.31;5011278;28;20109;-68
2023/01/27 03:05:37;;;;;;;3.78;1.20;;;;;;;18.05;37.87;102388.50;5011173;28;20033;-69
2023/01/27 03:08:02;;;;;;;3.63;1.10;;;;;;;18.03;37.89;102399.16;5011250;28;20038;-69
2023/01/27 03:10:27;;;;;;;3.47;1.15;;;;;;;17.98;37.95;102388.00;5011428;28;20025;-70
2023/01/27 03:12:53;;;;;;;4.75;1.30;;;;;;;18.03;38.39;102406.22;5011533;28;20033;-70
2023/01/27 03:18:12;;;;;;;4.13;1.17;;;;;;;17.98;38.17;102393.28;5011188;28;20112;-70
2023/01/27 03:20:43;;;;;;;5.68;1.35;;;;;;;17.98;37.98;102403.84;5011168;28;20365;-69
2023/01/27 03:23:09;;;;;;;3.67;1.10;;;;;;;17.99;38.00;102407.31;5011226;28;20029;-69
2023/01/27 03:25:35;;;;;;;5.18;1.40;;;;;;;17.97;37.69;102407.41;5009689;28;20428;-69
2023/01/27 03:28:00;;;;;;;5.15;1.40;;;;;;;17.95;37.95;102406.66;5010680;28;20034;-69
2023/01/27 03:30:27;;;;;;;4.40;1.42;;;;;;;17.97;37.86;102407.41;5010880;28;20033;-69
2023/01/27 03:32:53;;;;;;;5.60;1.50;;;;;;;17.91;37.85;102403.34;5011215;28;20033;-70
2023/01/27 03:35:18;;;;;;;4.60;1.40;;;;;;;17.97;37.71;102414.47;5010627;28;20037;-71
2023/01/27 03:46:15;;;;;;;4.03;1.30;;;;;;;17.94;37.68;102429.53;5010794;28;20883;-68
2023/01/27 03:48:41;;;;;;;3.85;1.25;;;;;;;17.90;37.99;102421.88;5010653;28;21166;-70
2023/01/27 03:51:08;;;;;;;4.22;1.30;;;;;;;17.92;37.98;102436.66;5010575;28;20145;-69
2023/01/27 03:53:34;;;;;;;4.70;1.45;;;;;;;17.92;37.98;102427.91;5010954;28;20083;-69
2023/01/27 03:56:00;;;;;;;3.58;1.27;;;;;;;17.87;37.62;102424.66;5010796;28;20042;-69
2023/01/27 03:58:30;;;;;;;6.55;2.08;;;;;;;17.89;37.56;102434.19;5010354;28;20453;-68
2023/01/27 04:00:59;;;;;;;5.13;1.42;;;;;;;17.85;37.44;102424.75;5010582;28;20572;-70
2023/01/27 04:08:57;;;;;;;3.85;1.27;;;;;;;17.85;37.88;102437.06;5011097;28;20072;-69
2023/01/27 04:14:07;;;;;;;4.60;1.60;;;;;;;17.86;37.65;102430.84;5010842;28;20088;-68
2023/01/27 04:16:35;;;;;;;4.07;1.50;;;;;;;17.86;37.65;102429.06;5001482;28;20036;-68
2023/01/27 04:19:01;;;;;;;5.20;1.50;;;;;;;17.87;37.62;102424.66;5010732;28;20034;-68
2023/01/27 04:21:26;;;;;;;4.07;1.42;;;;;;;17.86;37.77;102430.84;5010780;28;20041;-69
2023/01/27 04:23:52;;;;;;;5.00;1.80;;;;;;;17.84;37.71;102430.94;5009976;28;20042;-68
2023/01/27 04:26:18;;;;;;;3.35;1.33;;;;;;;17.85;37.75;102423.88;5009811;28;20034;-69
2023/01/27 04:28:43;;;;;;;5.28;1.67;;;;;;;17.85;37.95;102431.78;5011046;28;20045;-69
2023/01/27 04:31:09;;;;;;;4.88;1.40;;;;;;;17.82;37.61;102430.19;5012691;28;20066;-69
2023/01/27 04:33:34;;;;;;;3.72;1.55;;;;;;;17.80;38.02;102426.78;5013095;28;20041;-69
2023/01/27 04:35:59;;;;;;;4.30;1.60;;;;;;;17.81;37.61;102432.91;5013722;28;21044;-69
2023/01/27 04:38:25;;;;;;;4.45;1.63;;;;;;;17.84;37.78;102443.28;5013584;28;20042;-69
2023/01/27 04:40:50;;;;;;;4.55;1.80;;;;;;;17.84;37.83;102446.75;5014258;28;20033;-70
2023/01/27 04:43:15;;;;;;;4.78;1.70;;;;;;;17.79;37.67;102435.63;5012121;28;20060;-70
2023/01/27 04:45:40;;;;;;;5.40;1.65;;;;;;;17.78;37.60;102441.81;5012387;28;20065;-69
2023/01/27 04:48:06;;;;;;;5.03;2.00;;;;;;;17.80;37.66;102447.88;5013627;28;20041;-69
2023/01/27 04:50:32;;;;;;;5.80;1.98;;;;;;;17.81;37.46;102452.19;5011669;28;20041;-69
2023/01/27 04:52:57;;;;;;;4.57;1.60;;;;;;;17.81;37.37;102452.19;5011559;28;20042;-69
2023/01/27 04:55:22;;;;;;;5.25;1.80;;;;;;;17.80;37.43;102453.16;5013314;28;20950;-70
2023/01/27 04:57:48;;;;;;;4.60;1.70;;;;;;;17.76;37.62;102448.97;5010854;28;20033;-69
2023/01/27 05:00:14;;;;;;;4.53;1.80;;;;;;;17.76;37.84;102455.09;5009882;28;20049;-69
2023/01/27 05:02:39;;;;;;;3.92;1.65;;;;;;;17.79;37.56;102458.50;5013526;28;20044;-69
2023/01/27 05:05:05;;;;;;;5.10;1.73;;;;;;;17.76;37.65;102446.34;5013739;28;20477;-68
2023/01/27 05:07:31;;;;;;;4.15;1.90;;;;;;;17.79;37.55;102461.16;5013702;28;20491;-69
2023/01/27 05:09:56;;;;;;;5.13;1.83;;;;;;;17.74;37.29;102458.75;5012706;28;20030;-69
2023/01/27 05:12:22;;;;;;;5.15;1.95;;;;;;;17.77;37.43;102469.16;5013420;28;20056;-69
2023/01/27 05:14:47;;;;;;;6.00;2.00;;;;;;;17.74;37.28;102470.16;5013107;28;20131;-69
2023/01/27 05:17:12;;;;;;;4.80;1.90;;;;;;;17.74;37.62;102483.34;5013803;28;20593;-69
2023/01/27 05:19:37;;;;;;;4.70;2.05;;;;;;;17.75;37.29;102468.34;5013259;28;20052;-69
2023/01/27 05:22:03;;;;;;;3.97;1.70;;;;;;;17.76;37.40;102476.19;5013088;28;20116;-69
2023/01/27 05:24:28;;;;;;;4.30;1.92;;;;;;;17.73;37.58;102478.16;5012812;28;20064;-69
2023/01/27 05:26:53;;;;;;;3.60;1.50;;;;;;;17.74;37.43;102483.34;5013119;28;20382;-69
2023/01/27 05:29:19;;;;;;;4.18;1.90;;;;;;;17.73;37.44;102478.97;5012574;28;20391;-69
2023/01/27 05:31:44;;;;;;;4.75;1.80;;;;;;;17.75;37.24;102482.41;5013033;28;20128;-68
2023/01/27 05:34:09;;;;;;;4.72;1.90;;;;;;;17.74;37.37;102487.78;5012547;28;20038;-69
2023/01/27 05:36:34;;;;;;;3.10;1.45;;;;;;;17.75;37.38;102490.31;5012648;28;20038;-68
2023/01/27 05:39:00;;;;;;;4.30;1.38;;;;;;;17.70;37.85;102483.59;5011997;28;20064;-68
2023/01/27 05:41:27;;;;;;;3.30;1.40;;;;;;;17.75;38.10;102487.69;5012439;28;20456;-69
2023/01/27 05:43:54;;;;;;;3.70;1.30;;;;;;;17.77;38.02;102491.09;5012794;28;20033;-69
2023/01/27 05:46:23;;;;;;;3.90;1.20;;;;;;;17.84;37.82;102503.94;5012745;28;20029;-70
2023/01/27 05:48:51;;;;;;;3.08;1.10;;;;;;;17.89;37.79;102494.88;5012327;28;20034;-70
2023/01/27 05:51:19;;;;;;;3.28;1.00;;;;;;;17.92;37.96;102493.84;5012800;28;20057;-70
2023/01/27 05:53:45;;;;;;;3.00;1.15;;;;;;;17.97;37.71;102497.09;5011878;28;20446;-69
2023/01/27 05:56:12;;;;;;;2.65;1.20;;;;;;;18.05;37.69;102505.44;5012606;28;20033;-68
2023/01/27 05:58:38;;;;;;;4.35;1.20;;;;;;;18.10;37.80;102505.19;5012607;28;20096;-70
2023/01/27 06:01:10;;;;;;;3.20;1.15;;;;;;;18.16;37.56;102504.00;5012711;28;20445;-69
2023/01/27 06:03:36;;;;;;;2.33;1.08;;;;;;;18.19;37.77;102503.84;5012542;28;20390;-69
2023/01/27 06:06:02;;;;;;;3.30;1.17;;;;;;;18.18;37.82;102502.97;5012222;28;20045;-70
2023/01/27 06:08:28;;;;;;;3.78;1.13;;;;;;;18.22;38.01;102506.31;5012258;28;20029;-69
2023/01/27 06:10:53;;;;;;;2.72;1.10;;;;;;;18.25;38.05;102506.97;5011761;28;20057;-69
2023/01/27 06:13:22;;;;;;;3.35;1.00;;;;;;;18.25;38.20;102508.78;5012309;28;20029;-69
2023/01/27 06:15:49;;;;;;;2.50;0.93;;;;;;;18.26;38.11;102508.69;5012610;28;20034;-71
2023/01/27 06:18:16;;;;;;;3.10;1.10;;;;;;;18.29;38.26;102502.38;5012207;28;20111;-70
2023/01/27 06:20:42;;;;;;;2.83;1.13;;;;;;;18.29;38.46;102505.88;5011658;28;20040;-68
2023/01/27 06:23:09;;;;;;;2.67;1.00;;;;;;;18.32;38.50;102512.75;5011889;28;20029;-69
2023/01/27 06:25:39;;;;;;;3.63;1.40;;;;;;;18.34;38.63;102512.69;5010549;28;20077;-69
2023/01/27 06:28:06;;;;;;;3.50;1.23;;;;;;;18.34;38.80;102520.59;5011355;28;20158;-70
2023/01/27 06:30:33;;;;;;;5.07;2.95;;;;;;;18.36;38.93;102524.88;5011675;28;20048;-71
2023/01/27 06:32:59;;;;;;;4.70;1.35;;;;;;;18.34;38.86;102521.47;5011742;28;20473;-70
2023/01/27 06:35:25;;;;;;;2.45;1.08;;;;;;;18.36;38.97;102518.72;5011854;28;20041;-70
2023/01/27 06:37:50;;;;;;;3.03;1.20;;;;;;;18.38;39.10;102522.97;5010286;28;20033;-71
2023/01/27 06:40:16;;;;;;;3.55;1.20;;;;;;;18.35;39.42;102519.66;5012085;28;20041;-69
2023/01/27 06:42:42;;;;;;;6.13;1.23;;;;;;;18.35;39.18;102520.50;5011408;28;20103;-69
2023/01/27 06:45:10;;;;;;;4.93;1.58;;;;;;;18.37;39.45;102523.91;5011582;28;20124;-70
2023/01/27 06:47:35;;;;;;;3.60;1.20;;;;;;;18.40;39.17;102530.81;5010512;28;20032;-70
2023/01/27 06:50:00;;;;;;;3.70;1.10;;;;;;;18.42;39.37;102526.28;5011547;28;20041;-70
2023/01/27 06:52:25;;;;;;;3.63;1.30;;;;;;;18.44;39.56;102525.28;5010547;28;20466;-69
2023/01/27 06:54:51;;;;;;;4.77;1.20;;;;;;;18.41;39.70;102522.81;5008310;28;20037;-71
2023/01/27 06:57:16;;;;;;;4.30;1.10;;;;;;;18.42;39.49;102519.25;5011898;28;20266;-72
2023/01/27 06:59:41;;;;;;;4.80;1.20;;;;;;;18.46;39.61;102526.03;5010331;28;20072;-73
2023/01/27 07:02:11;;;;;;;2.30;1.00;;;;;;;18.47;39.73;102525.13;5011451;28;20029;-70
2023/01/27 07:04:36;;;;;;;3.58;1.20;;;;;;;18.51;39.47;102517.88;5011305;28;20393;-70
2023/01/27 07:07:02;;;;;;;4.80;1.20;;;;;;;18.53;39.71;102528.34;5011332;28;20034;-68
2023/01/27 07:09:27;;;;;;;5.68;1.42;;;;;;;18.55;39.96;102531.72;5011521;28;20033;-69
2023/01/27 07:11:53;;;;;;;3.78;1.30;;;;;;;18.54;39.96;102530.91;5011676;28;20129;-70
2023/01/27 07:14:18;;;;;;;3.65;0.90;;;;;;;18.58;40.12;102535.06;5011370;28;20041;-68
2023/01/27 07:16:44;;;;;;;5.10;1.25;;;;;;;18.57;40.15;102528.09;5012083;28;20470;-70
2023/01/27 07:19:11;;;;;;;6.72;1.70;;;;;;;18.63;40.69;102540.09;5011861;28;20375;-72
2023/01/27 07:21:36;;;;;;;4.10;1.40;;;;;;;18.63;40.58;102537.47;5011685;28;20117;-71
2023/01/27 07:24:02;;;;;;;5.05;1.30;;;;;;;18.61;40.93;102532.25;5010749;28;20442;-70
2023/01/27 07:26:27;;;;;;;3.90;1.20;;;;;;;18.61;40.89;102534.91;5011021;28;20530;-69
2023/01/27 07:28:54;;;;;;;4.00;1.30;;;;;;;18.63;41.02;102537.47;5011325;28;20505;-71
2023/01/27 07:31:19;;;;;;;4.82;1.58;;;;;;;18.67;41.13;102539.84;5006857;28;20429;-71
2023/01/27 07:33:45;;;;;;;5.03;1.30;;;;;;;18.66;41.15;102537.28;5009874;28;20041;-72
2023/01/27 07:36:10;;;;;;;4.60;1.15;;;;;;;18.71;41.32;102547.56;5010256;28;20065;-70
2023/01/27 07:38:36;;;;;;;3.38;1.27;;;;;;;18.66;41.37;102540.75;5010035;28;20037;-71
2023/01/27 07:41:05;;;;;;;5.57;1.30;;;;;;;18.67;41.50;102542.47;5010720;28;20048;-70
2023/01/27 07:43:31;;;;;;;4.63;1.02;;;;;;;18.70;41.41;102541.44;5010507;28;20033;-69
2023/01/27 07:45:56;;;;;;;4.90;1.50;;;;;;;18.76;41.57;102551.66;5011027;28;20033;-69
2023/01/27 07:48:22;;;;;;;3.50;1.05;;;;;;;18.63;42.05;102551.50;5010295;28;20033;-72
2023/01/27 07:50:47;;;;;;;5.60;1.27;;;;;;;18.73;41.71;102548.34;5010226;28;20033;-71
2023/01/27 07:53:12;;;;;;;4.60;1.60;;;;;;;18.71;41.52;102551.06;5008555;28;20029;-71
2023/01/27 07:55:38;;;;;;;4.95;1.52;;;;;;;18.70;41.75;102559.91;5010370;28;20025;-68
2023/01/27 07:58:03;;;;;;;5.38;1.20;;;;;;;18.71;41.79;102563.41;5010516;28;20485;-71
2023/01/27 08:00:29;;;;;;;4.93;1.30;;;;;;;18.70;41.58;102559.91;5010379;28;20107;-68
2023/01/27 08:02:56;;;;;;;3.55;1.05;;;;;;;18.65;41.57;102554.91;5011219;28;20149;-76
2023/01/27 08:05:21;;;;;;;4.35;1.30;;;;;;;18.74;41.92;102563.22;5013739;28;20069;-71
2023/01/27 08:07:48;;;;;;;6.55;1.23;;;;;;;18.73;42.13;102554.47;5015710;28;20041;-75
2023/01/27 08:10:13;;;;;;;4.68;1.50;;;;;;;18.79;42.00;102550.63;5013567;28;20481;-74
2023/01/27 08:12:39;;;;;;;5.55;1.20;;;;;;;18.87;42.09;102559.00;5013620;28;20105;-75
2023/01/27 08:15:04;;;;;;;5.72;1.20;;;;;;;18.89;42.12;102565.03;5013591;28;20033;-73
2023/01/27 08:17:30;;;;;;;3.83;1.10;;;;;;;18.93;42.07;102565.72;5012269;28;20974;-75
2023/01/27 08:19:55;;;;;;;3.83;1.30;;;;;;;18.98;42.05;102553.94;5015428;28;20124;-72
2023/01/27 08:22:21;;;;;;;7.15;1.50;;;;;;;19.00;42.15;102559.97;5013511;28;20047;-71
2023/01/27 08:24:47;;;;;;;5.28;1.60;;;;;;;19.00;41.88;102565.28;5015604;28;20061;-74
2023/01/27 08:27:13;;;;;;;6.28;1.40;;;;;;;18.92;41.97;102558.75;5013711;28;20037;-72
2023/01/27 08:29:38;;;;;;;6.90;1.60;;;;;;;18.95;41.94;102563.84;5011702;28;20045;-71
2023/01/27 08:32:04;;;;;;;4.97;1.17;;;;;;;18.95;41.81;102580.53;5012241;28;20437;-70
2023/01/27 08:34:29;;;;;;;4.00;1.13;;;;;;;18.88;42.06;102571.25;5012644;28;20026;-71
2023/01/27 08:36:54;;;;;;;8.48;1.30;;;;;;;18.90;42.25;102571.16;5012575;28;20037;-75
2023/01/27 08:39:19;;;;;;;4.27;1.10;;;;;;;18.87;42.21;102574.84;5009909;28;20057;-74
2023/01/27 08:41:45;;;;;;;7.78;1.85;;;;;;;18.87;42.29;102582.78;5008167;28;20740;-75
2023/01/27 08:44:10;;;;;;;5.10;1.40;;;;;;;18.87;42.30;102584.53;5011748;28;20429;-74
2023/01/27 08:46:35;;;;;;;6.88;1.27;;;;;;;18.88;42.32;102581.81;5012553;28;20474;-70
2023/01/27 08:49:01;;;;;;;5.30;1.33;;;;;;;18.87;42.15;102581.91;5012123;28;20114;-71
2023/01/27 08:51:26;;;;;;;7.43;1.40;;;;;;;18.88;42.42;102591.53;5012447;28;20751;-70
2023/01/27 08:53:51;;;;;;;5.38;1.15;;;;;;;18.84;42.31;102590.88;5012159;28;20044;-71
2023/01/27 08:56:17;;;;;;;3.53;1.02;;;;;;;18.81;42.37;102589.22;5010280;28;20535;-72
2023/01/27 08:58:44;;;;;;;4.07;1.30;;;;;;;18.81;42.51;102596.28;5012262;28;20117;-72
2023/01/27 09:01:10;;;;;;;4.13;1.10;;;;;;;18.81;42.51;102599.78;5012378;28;20029;-74
2023/01/27 09:03:35;;;;;;;7.60;1.70;;;;;;;18.82;42.41;102605.94;5013425;28;20052;-70
2023/01/27 09:06:01;;;;;;;4.68;1.80;;;;;;;18.75;42.62;102602.75;5013704;28;20452;-73
2023/01/27 09:08:27;;;;;;;6.22;1.10;;;;;;;18.78;42.30;102615.81;5011887;28;20386;-74
2023/01/27 09:10:52;;;;;;;6.57;1.17;;;;;;;18.79;42.43;102620.16;5014527;28;20029;-73
2023/01/27 09:13:21;;;;;;;6.25;1.40;;;;;;;18.78;42.48;102614.97;5013512;28;20033;-72
2023/01/27 09:15:46;;;;;;;9.45;1.27;;;;;;;18.77;42.46;102618.53;5011956;28;20064;-72
2023/01/27 09:18:11;;;;;;;6.05;1.00;;;;;;;18.77;42.68;102618.53;5012046;28;20064;-71
2023/01/27 09:20:37;;;;;;;3.75;1.10;;;;;;;18.77;42.73;102615.88;5014412;28;20436;-70
2023/01/27 09:23:04;;;;;;;4.85;1.30;;;;;;;18.80;42.47;102610.44;5013754;28;20080;-71
2023/01/27 09:25:29;;;;;;;5.70;1.38;;;;;;;18.79;42.50;102619.31;5012355;28;20042;-73
2023/01/27 09:27:56;;;;;;;7.78;1.67;;;;;;;18.76;42.26;102617.69;5012416;28;20033;-70
2023/01/27 09:30:22;;;;;;;4.10;1.20;;;;;;;18.78;42.39;102617.59;5014118;28;20033;-70
2023/01/27 09:32:47;;;;;;;6.68;1.50;;;;;;;18.78;42.48;102607.88;5014057;28;20033;-71
2023/01/27 09:35:13;;;;;;;6.75;1.10;;;;;;;18.80;42.64;102616.59;5015033;28;20458;-70
2023/01/27 09:37:46;;;;;;;6.07;1.20;;;;;;;18.78;42.37;102615.81;5016389;28;20034;-73
2023/01/27 09:40:28;;;;;;;7.05;1.27;;;;;;;18.78;42.50;102629.00;5012637;28;21177;-70
2023/01/27 09:43:20;;;;;;;3.90;1.00;;;;;;;18.79;42.37;102622.81;5013499;28;20505;-72
2023/01/27 09:46:16;;;;;;;4.63;1.10;;;;;;;18.82;42.55;102630.56;5012921;28;20192;-73
2023/01/27 09:49:05;;;;;;;4.25;1.17;;;;;;;18.83;42.61;102628.75;5013134;28;20021;-71
2023/01/27 09:52:09;;;;;;;3.80;0.93;;;;;;;18.83;42.51;102628.75;5013164;28;20046;-72
2023/01/27 09:54:43;;;;;;;5.50;1.20;;;;;;;18.83;42.68;102634.91;5012453;28;20132;-72
2023/01/27 09:57:23;;;;;;;6.60;1.33;;;;;;;18.84;42.51;102646.34;5019754;28;20045;-72
2023/01/27 10:00:14;;;;;;;5.03;1.48;;;;;;;18.84;42.40;102641.91;5011912;28;20045;-72
2023/01/27 10:03:00;;;;;;;8.23;1.80;;;;;;;18.85;42.44;102645.44;5012106;28;20032;-71
2023/01/27 10:05:41;;;;;;;6.03;1.15;;;;;;;18.82;42.50;102635.84;5012637;28;20044;-72
2023/01/27 10:08:24;;;;;;;5.45;1.10;;;;;;;18.83;42.62;102645.47;5012645;28;20040;-73
2023/01/27 10:11:16;;;;;;;3.45;0.90;;;;;;;18.83;42.43;102649.88;5012135;28;20117;-72
2023/01/27 10:14:03;;;;;;;2.40;0.85;;;;;;;18.82;42.62;102637.63;5011975;28;20041;-71
2023/01/27 10:16:31;;;;;;;5.07;1.10;;;;;;;18.87;42.53;102645.31;5011990;28;20112;-71
2023/01/27 10:18:56;;;;;;;3.75;1.17;;;;;;;18.85;42.37;102648.06;5012410;28;20052;-71
2023/01/27 10:21:52;;;;;;;7.10;1.20;;;;;;;18.89;42.67;102649.56;5011753;28;20385;-71
2023/01/27 10:24:30;;;;;;;2.40;0.77;;;;;;;18.87;42.59;102645.31;5011811;28;20270;-71
2023/01/27 10:27:10;;;;;;;6.40;1.10;;;;;;;18.90;42.51;102640.72;5011700;28;20037;-70
2023/01/27 10:29:41;;;;;;;4.15;1.10;;;;;;;18.84;42.75;102633.97;5012119;28;20032;-70
2023/01/27 10:32:12;;;;;;;4.35;1.00;;;;;;;18.82;42.10;102624.44;5012124;28;20095;-72
2023/01/27 10:34:55;;;;;;;4.35;1.10;;;;;;;18.86;42.43;102639.19;5009352;28;20049;-72
2023/01/27 10:37:43;;;;;;;6.00;1.10;;;;;;;18.89;43.00;102628.44;5011741;28;20036;-75
2023/01/27 10:40:32;;;;;;;4.78;1.23;;;;;;;18.95;43.87;102633.38;5011681;28;20041;-71
2023/01/27 10:43:15;;;;;;;4.70;1.30;;;;;;;18.90;43.95;102627.50;5011812;28;20030;-70
2023/01/27 10:46:06;;;;;;;7.57;1.30;;;;;;;18.92;43.95;102638.84;5011284;28;20482;-72
2023/01/27 10:48:56;;;;;;;7.53;1.45;;;;;;;18.92;44.24;102632.72;5010739;28;20044;-70
2023/01/27 10:51:42;;;;;;;8.65;1.20;;;;;;;18.90;44.68;102634.56;5010347;28;20050;-71
2023/01/27 10:54:16;;;;;;;4.75;1.10;;;;;;;18.85;44.46;102630.41;5011100;28;20536;-73
2023/01/27 10:56:52;;;;;;;5.28;1.27;;;;;;;18.90;44.37;102637.22;5010608;28;20140;-70
2023/01/27 10:59:25;;;;;;;7.38;1.63;;;;;;;18.83;44.75;102624.34;5010909;28;20061;-71
2023/01/27 11:02:18;;;;;;;5.63;1.03;;;;;;;18.89;44.40;102633.72;5011798;28;20048;-73
2023/01/27 11:04:53;;;;;;;5.43;1.05;;;;;;;18.88;44.64;102625.88;5005804;28;20037;-73
2023/01/27 11:07:22;;;;;;;6.03;1.33;;;;;;;18.87;44.50;102618.88;5009755;28;20544;-72
2023/01/27 11:09:51;;;;;;;4.53;1.10;;;;;;;18.86;44.60;102618.03;5010129;28;20125;-72
2023/01/27 11:12:22;;;;;;;6.78;1.23;;;;;;;18.88;44.33;102623.25;5011509;28;20076;-72
2023/01/27 11:14:50;;;;;;;3.58;1.05;;;;;;;18.86;44.42;102623.34;5011262;28;20037;-72
2023/01/27 11:17:16;;;;;;;7.13;1.20;;;;;;;18.89;44.11;102627.59;5011009;28;20557;-72
2023/01/27 11:19:59;;;;;;;8.30;1.63;;;;;;;18.86;44.10;102631.25;5011299;28;20091;-70
2023/01/27 11:22:48;;;;;;;4.72;1.60;;;;;;;18.86;44.27;102623.34;5010771;28;20041;-71
2023/01/27 11:25:32;;;;;;;7.47;1.25;;;;;;;18.83;43.93;102624.34;5011589;28;20065;-76
2023/01/27 11:28:36;;;;;;;;;;;;;;;18.90;43.77;102624.00;5011545;28;20564;-77
2023/01/27 11:31:12;;;;;;;6.32;1.35;;;;;;;18.83;43.04;102619.06;4994014;28;19916;-73
2023/01/27 11:33:57;;;;;;;6.47;1.45;;;;;;;18.82;43.10;102627.06;5019035;28;20544;-74
2023/01/27 11:36:23;;;;;;;;;;;;;;;18.89;43.18;102638.16;5013923;28;20084;-76
2023/01/27 11:38:49;;;;;;;3.35;0.85;;;;;;;18.80;43.28;102627.16;5014680;28;19941;-77
2023/01/27 11:41:14;;;;;;;2.55;0.88;;;;;;;18.78;43.29;102623.72;5015169;28;20076;-74
2023/01/27 11:43:39;;;;;;;8.77;1.20;;;;;;;18.77;43.53;102635.25;5014809;28;20030;-72
2023/01/27 11:46:09;;;;;;;6.85;1.00;;;;;;;18.75;43.43;102625.69;5005565;28;20072;-73
2023/01/27 11:48:40;;;;;;;8.65;1.67;;;;;;;18.77;43.36;102610.59;5014798;28;20108;-76
2023/01/27 11:51:24;;;;;;;3.95;0.88;;;;;;;18.70;43.20;102596.91;5014824;28;20141;-72
2023/01/27 11:54:04;;;;;;;5.40;1.20;;;;;;;18.79;43.30;102612.22;5013973;28;20034;-76
2023/01/27 11:56:32;;;;;;;6.95;1.08;;;;;;;18.79;43.20;102619.31;5022452;28;20038;-74
2023/01/27 11:59:04;;;;;;;5.88;1.02;;;;;;;18.78;42.94;102621.09;5015951;28;20781;-75
2023/01/27 12:01:43;;;;;;;6.28;1.05;;;;;;;18.75;43.17;102601.94;5014977;28;20042;-74
2023/01/27 12:04:24;;;;;;;4.60;1.10;;;;;;;18.74;43.25;102603.72;5014533;28;20294;-75